鹿児島空港の過去48時間の天気

鹿児島空港 (Kagoshima)

現在時刻: 9/23 02:39 JST (9/22 17:39 UTC) 以下の時間は現地時間です。

過去48時間のMETAR気象情報
時間 風向 風速(m/s) 視程 気温(℃) 湿度(%) 気圧(hPa) 天気現象
22 21:00 2 10km以上 21 88 1011
22 20:00 2 10km以上 23 69 1011
22 19:00 4 10km以上 24 65 1010
22 18:00 5 10km以上 24 69 1010
22 17:00 4 10km以上 25 69 1010
22 16:00 4 10km以上 25 69 1010
22 15:00 3 10km以上 25 69 1011
22 14:00 6 10km以上 25 69 1011
22 13:00 7 10km以上 25 65 1011
22 12:00 7 10km以上 25 65 1011
22 11:00 7 10km以上 25 65 1012
22 10:00 5 10km以上 24 65 1012
22 09:43 5 10km以上 23 65 1013
22 09:00 2 10km以上 21 73 1013
22 08:00 北西 2 10km以上 20 73 1013
22 07:00 北北東 2 10km以上 17 83 1013
22 06:00 3 10km以上 17 77 1013
21 21:00 北東 2 10km以上 17 83 1014
21 20:00 北東 2 10km以上 18 77 1014
21 19:00 東南東 2 10km以上 21 53 1014
21 18:00 5 10km以上 21 56 1012
21 17:00 東南東 4 10km以上 23 50 1012
21 16:00 東南東 4 10km以上 24 50 1013
21 15:00 東南東 4 10km以上 25 44 1013
21 14:00 東南東 3 10km以上 25 44 1013
21 13:00 東南東 3 10km以上 24 47 1014
21 12:00 東南東 3 10km以上 24 44 1014
21 11:00 東南東 3 10km以上 24 50 1014
21 10:00 南東 2 10km以上 22 57 1015
21 09:00 2 10km以上 19 68 1015
21 08:00 3 10km以上 16 72 1014
21 07:00 3 10km以上 13 88 1015
21 06:00 3 10km以上 12 88 1014
RJFK 221200Z 36004KT 9999 FEW030 SCT090 BKN100 21/19 Q1011 RMK 1CU030 3AC090 6AC100 A2987
RJFK 221100Z 08004KT 040V140 9999 FEW030 BKN090 23/17 Q1011 RMK 1CU030 7AC090 A2986
RJFK 221000Z 10008KT 060V130 9999 FEW030 SCT070 BKN090 24/17 Q1010 RMK 1CU030 3AC070 6AC090 A2985
RJFK 220900Z 10009KT 9999 FEW030 SCT070 BKN090 24/18 Q1010 RMK 1CU030 3AC070 6AC090 A2984
RJFK 220800Z 10007KT 060V120 9999 FEW030 SCT070 BKN090 25/19 Q1010 RMK 1CU030 3AC070 6AC090 A2985
RJFK 220700Z 10007KT 060V130 9999 FEW025 BKN090 25/19 Q1010 RMK 1CU025 5AC090 A2985
RJFK 220600Z 08006KT 040V120 9999 FEW035 SCT070 BKN090 25/19 Q1011 RMK 1CU035 4AC070 6AC090 A2986
RJFK 220500Z 10011KT 070V140 9999 FEW035 SCT070 BKN090 25/19 Q1011 RMK 1CU035 3AC070 6AC090 A2986
RJFK 220400Z 10014KT 9999 FEW035 SCT050 BKN070 25/18 Q1011 RMK 1CU035 3SC050 6AC070 A2987
RJFK 220300Z 10013G23KT 070V130 9999 FEW035 SCT070 25/18 Q1011 RMK 1CU035 4AC070 A2988
RJFK 220200Z 10014KT 9999 FEW035 SCT080 BKN/// 25/18 Q1012 RMK 1CU035 4AC080 A2990
RJFK 220100Z 09010KT 070V130 9999 FEW035 SCT060 24/17 Q1012 RMK 1CU035 3SC060 A2990
RJFK 220043Z 10010KT 060V130 9999 FEW035 SCT060 BKN100 23/16 Q1013 RMK 1CU035 4SC060 5AC100 A2992
RJFK 220000Z 36004KT 310V040 9999 FEW035 BKN060 BKN100 21/16 Q1013 RMK 1CU035 5SC060 6AC100 A2992
RJFK 212300Z 32004KT 280V010 9999 FEW035 SCT050 BKN090 20/15 Q1013 RMK 1CU035 4SC050 7AC090 A2992
RJFK 212200Z 03004KT 360V070 9999 FEW035 BKN050 BKN100 17/14 Q1013 RMK 1CU035 5SC050 6AC100 A2992
RJFK 212100Z 36005KT 290V040 9999 FEW035 BKN050 17/13 Q1013 RMK 1CU035 7SC050 A2992
RJFK 211200Z 04003KT 330V120 CAVOK 17/14 Q1014 RMK A2996
RJFK 211100Z 04003KT 010V080 CAVOK 18/14 Q1014 RMK A2994
RJFK 211000Z 12004KT 060V170 CAVOK 21/11 Q1014 RMK A2994 P/RR
RJFK 210900Z 09009KT CAVOK 21/12 Q1012 RMK A2990 VOLCANIC ASH CLOUD S
RJFK 210800Z 12007KT 9999 FEW030 BKN/// 23/12 Q1012 RMK 1CU030 A2990 VOLCANIC ASH CLOUD S-SW
RJFK 210700Z 11007KT CAVOK 24/13 Q1013 RMK A2992 VOLCANIC ASH CLOUD S
RJFK 210600Z 12007KT 080V150 CAVOK 25/12 Q1013 RMK A2992 VOLCANIC ASH CLOUD S
RJFK 210500Z 12005KT 080V150 9999 FEW030 BKN/// 25/12 Q1013
RJFK 210400Z 11006KT 060V150 CAVOK 24/12 Q1014 RMK A2995 VOLCANIC ASH CLOUD S
RJFK 210300Z 11006KT 080V150 CAVOK 24/11 Q1014 RMK A2996 VOLCANIC ASH CLOUD S
RJFK 210200Z 11006KT 060V160 CAVOK 24/13 Q1014 RMK A2997 VOLCANIC ASH CLOUD S
RJFK 210100Z 14004KT 100V240 CAVOK 22/13 Q1015 RMK A2998
RJFK 210000Z 36003KT 310V030 CAVOK 19/13 Q1015 RMK A2998
RJFK 202300Z 01005KT 340V040 CAVOK 16/11 Q1014 RMK A2997 VOLCANIC ASH CLOUD S
RJFK 202200Z 01006KT 9999 FEW030 SCT/// 13/11 Q1015 RMK 1CU030 A2997 VOLCANIC ASH CLOUD S
RJFK 202100Z 36006KT 9999 FEW030 SCT050 12/10 Q1014 RMK 1CU030 3SC050 A2996